Time;durP1;ratioP1;P1;durP2;ratioP2;P2;SDS_P1;SDS_P2;PMS_P1;PMS_P2;Temp;Humidity;BMP_temperature;BMP_pressure;BME280_temperature;BME280_humidity;BME280_pressure;Samples;Min_cycle;Max_cycle;Signal;HPM_P1;HPM_P2
2023/03/27 00:01:11;;;;;;;2.08;1.30;;;;;;;8.41;100.00;97108.88;4484509;31;20173;-64
2023/03/27 00:03:39;;;;;;;1.95;1.12;;;;;;;8.43;100.00;97106.91;4484658;32;20144;-64
2023/03/27 00:06:10;;;;;;;1.55;1.15;;;;;;;8.38;100.00;97104.78;4484516;32;20099;-64
2023/03/27 00:08:37;;;;;;;2.25;1.10;;;;;;;8.40;100.00;97088.97;4484533;31;20101;-64
2023/03/27 00:11:06;;;;;;;1.85;1.08;;;;;;;8.39;100.00;97089.94;4484375;31;20104;-64
2023/03/27 00:13:35;;;;;;;1.37;1.10;;;;;;;8.38;100.00;97078.69;4484573;31;20128;-64
2023/03/27 00:16:20;;;;;;;2.45;1.20;;;;;;;8.36;100.00;97078.06;4484483;31;20126;-64
2023/03/27 00:18:48;;;;;;;3.60;1.98;;;;;;;8.36;100.00;97070.22;4484257;32;20118;-65
2023/03/27 00:21:15;;;;;;;5.65;1.55;;;;;;;8.25;100.00;97068.78;4484184;31;20093;-64
2023/03/27 00:23:43;;;;;;;3.25;1.55;;;;;;;8.33;100.00;97063.53;4484474;32;20168;-65
2023/03/27 00:26:13;;;;;;;1.70;1.17;;;;;;;8.38;100.00;97057.00;4484326;32;20149;-64
2023/03/27 00:28:40;;;;;;;2.17;1.05;;;;;;;8.46;100.00;97051.78;4484376;31;20088;-64
2023/03/27 00:31:12;;;;;;;1.90;0.90;;;;;;;8.46;100.00;97054.41;4484246;31;20141;-64
2023/03/27 00:33:41;;;;;;;2.72;1.48;;;;;;;8.42;100.00;97053.06;4484406;31;20542;-64
2023/03/27 00:36:09;;;;;;;3.50;1.33;;;;;;;8.42;100.00;97055.69;4484188;32;20161;-64
2023/03/27 00:38:38;;;;;;;2.62;1.30;;;;;;;8.45;100.00;97052.78;4484444;31;20100;-64
2023/03/27 00:41:06;;;;;;;3.33;1.30;;;;;;;8.43;100.00;97044.28;4484146;31;20101;-64
2023/03/27 00:43:35;;;;;;;2.92;1.45;;;;;;;8.39;100.00;97042.97;4484421;31;20139;-64
2023/03/27 00:46:20;;;;;;;2.22;1.30;;;;;;;8.50;100.00;97040.06;4484078;31;20115;-64
2023/03/27 00:48:50;;;;;;;3.65;1.75;;;;;;;8.49;100.00;97033.19;4482767;32;20127;-64
2023/03/27 00:51:17;;;;;;;3.15;1.60;;;;;;;8.51;100.00;97037.28;4483930;31;20152;-64
2023/03/27 00:53:46;;;;;;;2.80;1.55;;;;;;;8.36;100.00;97028.47;4485288;31;20131;-64
2023/03/27 00:56:15;;;;;;;6.20;1.87;;;;;;;8.44;100.00;97025.88;4484760;32;20093;-64
2023/03/27 00:58:45;;;;;;;6.57;2.00;;;;;;;8.46;100.00;97016.09;4485944;31;20522;-64
2023/03/27 01:01:14;;;;;;;3.45;1.58;;;;;;;8.32;100.00;97019.34;4485996;31;20462;-65
2023/03/27 01:03:45;;;;;;;2.97;1.50;;;;;;;8.24;100.00;97014.94;4485045;32;20088;-65
2023/03/27 01:06:15;;;;;;;4.55;1.35;;;;;;;8.14;100.00;97007.28;4484782;32;20150;-65
2023/03/27 01:08:44;;;;;;;2.62;1.00;;;;;;;8.14;100.00;97004.69;4486316;32;20088;-64
2023/03/27 01:11:45;;;;;;;2.00;0.98;;;;;;;8.06;100.00;97003.91;4485999;32;20080;-64
2023/03/27 01:14:29;;;;;;;1.60;1.05;;;;;;;8.09;100.00;97004.38;4484754;32;20080;-64
2023/03/27 01:17:06;;;;;;;4.47;1.20;;;;;;;8.00;100.00;96987.91;4485740;31;20111;-64
2023/03/27 01:19:55;;;;;;;1.27;1.02;;;;;;;7.96;100.00;96991.84;4486006;31;20544;-65
2023/03/27 01:23:00;;;;;;;1.77;1.05;;;;;;;8.07;100.00;96987.25;4484935;32;20110;-65
2023/03/27 01:25:38;;;;;;;2.10;1.15;;;;;;;8.05;100.00;96986.62;4486083;32;20476;-65
2023/03/27 01:28:27;;;;;;;3.50;1.50;;;;;;;8.07;100.00;96987.25;4485664;31;20084;-64
2023/03/27 01:31:14;;;;;;;1.77;1.20;;;;;;;8.03;100.00;96975.53;4485659;31;20092;-64
2023/03/27 01:33:51;;;;;;;5.00;1.40;;;;;;;8.01;100.00;96967.87;4486113;31;20594;-64
2023/03/27 01:36:38;;;;;;;1.40;0.98;;;;;;;8.03;100.00;96970.34;4485958;31;20081;-64
2023/03/27 01:39:12;;;;;;;1.80;1.37;;;;;;;7.95;100.00;96969.34;4484626;32;20163;-64
2023/03/27 01:42:14;;;;;;;3.60;1.25;;;;;;;7.95;100.00;96963.34;4485908;31;20115;-64
2023/03/27 01:44:46;;;;;;;1.10;1.00;;;;;;;7.96;100.00;96964.94;4436613;32;20871;-65
2023/03/27 01:47:31;;;;;;;3.95;0.98;;;;;;;7.93;100.00;96954.84;4423716;32;20618;-65
2023/03/27 01:50:11;;;;;;;3.95;1.67;;;;;;;7.81;100.00;96954.38;4436800;32;20148;-65
2023/03/27 01:52:42;;;;;;;1.33;1.00;;;;;;;7.88;100.00;96955.34;4436318;32;20588;-65
2023/03/27 01:55:12;;;;;;;2.92;1.10;;;;;;;7.91;100.00;96949.78;4436367;32;20165;-64
2023/03/27 01:57:59;;;;;;;2.40;1.00;;;;;;;7.88;100.00;96952.75;4436624;32;20109;-64
2023/03/27 02:00:27;;;;;;;3.78;1.45;;;;;;;7.85;100.00;96953.06;4423869;32;20109;-65
2023/03/27 02:03:32;;;;;;;1.70;1.00;;;;;;;7.95;100.00;96958.13;4426274;32;20101;-64
2023/03/27 02:06:06;;;;;;;2.22;0.90;;;;;;;7.95;100.00;96958.94;4423281;32;20137;-64
2023/03/27 02:08:46;;;;;;;3.20;1.20;;;;;;;7.86;100.00;96952.09;4436501;32;20511;-64
2023/03/27 02:11:14;;;;;;;2.20;1.48;;;;;;;7.89;100.00;96950.94;4431184;32;20133;-64
2023/03/27 02:14:05;;;;;;;3.33;1.30;;;;;;;7.84;100.00;96948.81;4424386;32;20132;-64
2023/03/27 02:16:35;;;;;;;2.75;1.50;;;;;;;7.80;100.00;96947.53;4423876;32;20085;-64
2023/03/27 02:19:07;;;;;;;2.47;1.30;;;;;;;7.82;100.00;96938.56;4423834;32;20396;-64
2023/03/27 02:21:34;;;;;;;2.72;1.35;;;;;;;7.88;100.00;96924.06;4455680;32;20619;-65
2023/03/27 02:24:02;;;;;;;2.53;1.25;;;;;;;7.81;100.00;96913.50;4484247;32;20594;-64
2023/03/27 02:26:29;;;;;;;2.92;1.60;;;;;;;7.88;100.00;96907.63;4485676;31;20092;-64
2023/03/27 02:29:16;;;;;;;3.05;1.30;;;;;;;7.79;100.00;96891.97;4485076;31;20157;-65
2023/03/27 02:31:53;;;;;;;2.28;1.37;;;;;;;7.71;100.00;96888.59;4485267;32;20081;-64
2023/03/27 02:34:42;;;;;;;1.42;1.20;;;;;;;7.75;100.00;96879.44;4485481;31;20096;-64
2023/03/27 02:37:16;;;;;;;3.20;1.40;;;;;;;7.72;100.00;96874.56;4485622;32;20106;-64
2023/03/27 02:39:56;;;;;;;4.37;1.50;;;;;;;7.67;100.00;96861.22;4485699;31;20077;-64
2023/03/27 02:42:34;;;;;;;2.03;1.20;;;;;;;7.66;100.00;96857.81;4484336;32;20092;-64
2023/03/27 02:45:28;;;;;;;2.42;1.20;;;;;;;7.60;100.00;96864.50;4484410;32;20116;-64
2023/03/27 02:47:57;;;;;;;;;;;;;;;7.52;100.00;96861.88;4484455;32;20127;-64
2023/03/27 02:50:30;;;;;;;2.33;1.20;;;;;;;7.49;100.00;96859.59;4484183;32;19980;-64
2023/03/27 02:53:02;;;;;;;2.17;1.30;;;;;;;7.46;100.00;96852.94;4483998;32;20120;-64
2023/03/27 02:55:36;;;;;;;1.40;1.00;;;;;;;7.48;100.00;96852.78;4484206;32;20183;-64
2023/03/27 02:58:11;;;;;;;1.50;1.15;;;;;;;7.50;100.00;96847.41;4483962;32;20468;-64
2023/03/27 03:00:42;;;;;;;2.78;1.40;;;;;;;7.45;100.00;96846.09;4485179;31;20444;-64
2023/03/27 03:03:16;;;;;;;1.70;0.93;;;;;;;7.43;100.00;96849.84;4485439;31;20108;-64
2023/03/27 03:05:49;;;;;;;3.78;1.48;;;;;;;7.42;100.00;96845.63;4484316;32;20096;-64
2023/03/27 03:08:20;;;;;;;2.70;0.90;;;;;;;7.46;100.00;96836.47;4485440;32;20088;-64
2023/03/27 03:10:48;;;;;;;0.60;0.60;;;;;;;7.38;100.00;96832.09;4471432;32;20100;-64
2023/03/27 03:13:16;;;;;;;0.85;0.60;;;;;;;7.25;100.00;96830.00;4483583;32;20101;-64
2023/03/27 03:15:45;;;;;;;1.08;0.85;;;;;;;7.17;100.00;96830.00;4485033;31;20091;-64
2023/03/27 03:18:13;;;;;;;0.80;0.77;;;;;;;7.21;100.00;96833.91;4484702;31;20592;-64
2023/03/27 03:20:40;;;;;;;1.08;0.65;;;;;;;7.12;100.00;96829.69;4485293;31;20088;-64
2023/03/27 03:23:08;;;;;;;1.83;0.70;;;;;;;7.03;100.00;96831.47;4483518;32;20136;-64
2023/03/27 03:25:35;;;;;;;0.85;0.70;;;;;;;7.04;100.00;96835.72;4485210;31;20089;-64
2023/03/27 03:28:06;;;;;;;1.37;0.60;;;;;;;7.09;100.00;96832.63;4485045;31;20100;-64
2023/03/27 03:30:37;;;;;;;0.73;0.60;;;;;;;7.12;100.00;96834.91;4484961;31;20110;-64
2023/03/27 03:33:05;;;;;;;1.15;0.70;;;;;;;7.12;100.00;96834.91;4484936;31;20149;-64
2023/03/27 03:35:34;;;;;;;2.80;1.15;;;;;;;7.17;100.00;96830.00;4485225;32;20126;-64
2023/03/27 03:38:05;;;;;;;2.12;1.33;;;;;;;7.13;100.00;96831.31;4483564;32;20670;-64
2023/03/27 03:40:38;;;;;;;1.90;1.40;;;;;;;7.17;100.00;96831.81;4485106;32;20084;-64
2023/03/27 03:43:05;;;;;;;6.10;1.75;;;;;;;7.23;100.00;96833.75;4484796;32;20158;-64
2023/03/27 03:45:32;;;;;;;3.47;1.60;;;;;;;7.15;100.00;96825.97;4485139;31;20092;-64
2023/03/27 03:47:59;;;;;;;3.15;1.90;;;;;;;7.05;100.00;96826.91;4484621;31;20093;-65
2023/03/27 03:50:27;;;;;;;3.72;1.37;;;;;;;7.02;100.00;96823.81;4484848;32;20159;-64
2023/03/27 03:52:54;;;;;;;3.03;1.58;;;;;;;7.17;100.00;96816.97;4484472;31;20084;-64
2023/03/27 03:55:21;;;;;;;1.83;1.23;;;;;;;7.13;100.00;96823.50;4484812;31;20571;-64
2023/03/27 03:57:49;;;;;;;2.25;1.50;;;;;;;6.98;100.00;96818.16;4484589;31;20119;-64
2023/03/27 04:00:17;;;;;;;1.70;1.15;;;;;;;6.99;100.00;96819.75;4484867;31;20430;-64
2023/03/27 04:02:48;;;;;;;2.92;1.20;;;;;;;7.06;100.00;96822.53;4484353;32;20119;-64
2023/03/27 04:05:15;;;;;;;1.27;0.93;;;;;;;7.07;100.00;96824.97;4483716;32;20104;-64
2023/03/27 04:07:44;;;;;;;1.23;0.95;;;;;;;7.03;100.00;96825.47;4484688;31;20449;-64
2023/03/27 04:10:13;;;;;;;3.75;1.00;;;;;;;7.06;100.00;96825.13;4484376;31;20118;-64
2023/03/27 04:12:44;;;;;;;1.48;0.98;;;;;;;7.07;100.00;96818.94;4484010;31;20097;-65
2023/03/27 04:15:12;;;;;;;1.40;0.80;;;;;;;7.03;100.00;96817.66;4484834;31;20095;-64
2023/03/27 04:17:42;;;;;;;1.35;0.80;;;;;;;7.01;100.00;96819.59;4484198;31;20511;-65
2023/03/27 04:20:11;;;;;;;1.75;1.10;;;;;;;6.99;100.00;96824.16;4484217;31;20120;-64
2023/03/27 04:22:45;;;;;;;1.45;0.80;;;;;;;7.02;100.00;96816.81;4484363;32;20088;-64
2023/03/27 04:25:16;;;;;;;1.17;0.80;;;;;;;6.99;100.00;96821.56;4484734;31;20186;-64
2023/03/27 04:27:43;;;;;;;1.08;0.75;;;;;;;7.01;100.00;96815.22;4485794;31;20084;-64
2023/03/27 04:30:14;;;;;;;2.65;1.02;;;;;;;7.04;100.00;96814.87;4488702;31;20100;-64
2023/03/27 04:32:45;;;;;;;;;;;;;;;7.04;100.00;96814.06;4480895;32;20976;-65
2023/03/27 04:35:23;;;;;;;1.48;0.90;;;;;;;7.06;100.00;96818.13;4489622;31;20002;-64
2023/03/27 04:37:52;;;;;;;1.65;1.00;;;;;;;6.99;100.00;96811.94;4489393;32;20114;-64
2023/03/27 04:40:24;;;;;;;1.05;0.60;;;;;;;6.99;100.00;96811.12;4488606;32;20119;-65
2023/03/27 04:42:52;;;;;;;1.25;0.88;;;;;;;6.97;100.00;96813.91;4488238;31;20100;-65
2023/03/27 04:45:19;;;;;;;3.35;1.00;;;;;;;7.01;100.00;96810.00;4487604;31;20173;-64
2023/03/27 04:47:47;;;;;;;1.48;1.05;;;;;;;7.11;100.00;96802.00;4487518;31;20153;-64
2023/03/27 04:50:15;;;;;;;1.62;0.95;;;;;;;7.12;100.00;96795.84;4488134;31;20100;-64
2023/03/27 04:52:43;;;;;;;2.95;0.77;;;;;;;7.16;100.00;96804.97;4488237;31;20465;-64
2023/03/27 04:55:11;;;;;;;1.05;0.88;;;;;;;7.17;100.00;96811.78;4487999;31;20084;-64
2023/03/27 04:57:40;;;;;;;0.77;0.60;;;;;;;7.21;100.00;96800.06;4488883;31;20458;-64
2023/03/27 05:00:18;;;;;;;1.52;1.02;;;;;;;7.21;100.00;96800.06;4487916;31;20112;-64
2023/03/27 05:02:51;;;;;;;1.60;0.95;;;;;;;7.20;100.00;96790.63;4488957;31;20168;-64
2023/03/27 05:05:19;;;;;;;4.22;1.10;;;;;;;7.28;100.00;96795.00;4481734;32;20096;-64
2023/03/27 05:07:47;;;;;;;2.55;1.02;;;;;;;7.32;100.00;96779.88;4481189;31;20428;-64
2023/03/27 05:10:16;;;;;;;2.00;1.20;;;;;;;7.29;100.00;96781.81;4465709;31;79897;-64
2023/03/27 05:12:50;;;;;;;1.70;1.20;;;;;;;7.29;100.00;96779.19;4487130;31;20377;-64
2023/03/27 05:15:18;;;;;;;2.90;1.55;;;;;;;7.30;100.00;96774.81;4488451;31;20119;-64
2023/03/27 05:17:51;;;;;;;5.62;1.48;;;;;;;7.31;100.00;96773.03;4488791;31;20112;-64
2023/03/27 05:20:20;;;;;;;4.72;1.75;;;;;;;7.33;100.00;96776.25;4488002;31;20084;-64
2023/03/27 05:22:48;;;;;;;3.12;1.60;;;;;;;7.26;100.00;96776.94;4487256;31;20126;-64
2023/03/27 05:25:15;;;;;;;3.08;1.92;;;;;;;7.26;100.00;96771.72;4488166;31;20535;-64
2023/03/27 05:27:48;;;;;;;4.20;1.80;;;;;;;7.17;100.00;96779.72;4488512;31;20577;-64
2023/03/27 05:30:18;;;;;;;4.35;2.87;;;;;;;7.21;100.00;96779.22;4483560;31;20160;-64
2023/03/27 05:32:48;;;;;;;3.72;1.90;;;;;;;7.20;100.00;96780.19;4488181;32;20104;-65
2023/03/27 05:35:22;;;;;;;3.00;1.80;;;;;;;7.28;100.00;96775.00;4483955;31;20457;-65
2023/03/27 05:37:51;;;;;;;3.45;2.17;;;;;;;7.21;100.00;96775.81;4485459;31;20147;-65
2023/03/27 05:40:22;;;;;;;3.72;2.20;;;;;;;7.25;100.00;96772.72;4484381;31;20123;-65
2023/03/27 05:42:50;;;;;;;3.92;2.58;;;;;;;7.23;100.00;96779.06;4484401;31;20100;-65
2023/03/27 05:45:18;;;;;;;3.05;2.15;;;;;;;7.19;100.00;96773.38;4484631;31;20131;-66
2023/03/27 05:47:47;;;;;;;2.87;1.80;;;;;;;7.26;100.00;96770.91;4471690;32;20567;-66
2023/03/27 05:50:16;;;;;;;3.45;1.85;;;;;;;7.29;100.00;96766.19;4480682;31;20115;-65
2023/03/27 05:52:45;;;;;;;2.67;1.62;;;;;;;7.23;100.00;96766.03;4482994;31;20166;-66
2023/03/27 05:55:13;;;;;;;2.75;1.67;;;;;;;7.28;100.00;96758.53;4479927;31;20104;-66
2023/03/27 05:57:43;;;;;;;3.28;1.95;;;;;;;7.21;100.00;96758.41;4485317;31;20639;-65
2023/03/27 06:00:12;;;;;;;3.78;1.92;;;;;;;7.17;100.00;96757.09;4481027;32;20111;-65
2023/03/27 06:02:42;;;;;;;3.97;1.98;;;;;;;7.07;100.00;96759.06;4481742;31;20116;-65
2023/03/27 06:05:14;;;;;;;6.05;2.12;;;;;;;7.10;100.00;96754.34;4467681;31;20096;-65
2023/03/27 06:07:46;;;;;;;2.90;2.08;;;;;;;7.08;100.00;96752.88;4470940;31;20148;-67
2023/03/27 06:10:16;;;;;;;2.47;1.73;;;;;;;7.03;100.00;96750.78;4472222;31;20438;-66
2023/03/27 06:12:46;;;;;;;3.05;2.00;;;;;;;7.12;100.00;96748.97;4469197;32;20165;-66
2023/03/27 06:15:15;;;;;;;2.75;1.67;;;;;;;7.04;100.00;96746.37;4471533;31;20131;-64
2023/03/27 06:17:46;;;;;;;3.78;1.80;;;;;;;7.06;100.00;96744.44;4470701;31;20104;-65
2023/03/27 06:20:14;;;;;;;2.42;1.60;;;;;;;7.13;100.00;96748.00;4470716;31;20135;-65
2023/03/27 06:22:50;;;;;;;2.83;1.90;;;;;;;7.10;100.00;96741.31;4469790;31;20104;-65
2023/03/27 06:25:19;;;;;;;2.58;1.60;;;;;;;7.16;100.00;96746.84;4467584;31;20104;-65
2023/03/27 06:27:48;;;;;;;3.78;2.03;;;;;;;7.13;100.00;96737.59;4473134;31;20488;-65
2023/03/27 06:30:19;;;;;;;4.03;1.50;;;;;;;7.10;100.00;96743.09;4471603;31;20108;-65
2023/03/27 06:32:51;;;;;;;3.95;1.65;;;;;;;7.13;100.00;96734.97;4471518;32;20567;-66
2023/03/27 06:35:19;;;;;;;2.60;1.48;;;;;;;7.11;100.00;96736.91;4469640;31;20161;-65
2023/03/27 06:37:52;;;;;;;2.67;1.35;;;;;;;7.20;100.00;96742.94;4472180;31;20165;-66
2023/03/27 06:40:23;;;;;;;2.53;1.52;;;;;;;7.15;100.00;96734.81;4471521;32;20442;-66
2023/03/27 06:42:54;;;;;;;2.42;1.30;;;;;;;7.09;100.00;96739.69;4472217;31;20523;-65
2023/03/27 06:45:24;;;;;;;2.65;2.00;;;;;;;7.21;100.00;96744.56;4470762;31;20080;-66
2023/03/27 06:47:59;;;;;;;2.62;1.70;;;;;;;7.20;100.00;96750.75;4456249;32;20100;-65
2023/03/27 06:50:49;;;;;;;3.30;2.00;;;;;;;7.23;100.00;96751.22;4469204;31;20088;-66
2023/03/27 06:53:18;;;;;;;2.47;1.83;;;;;;;7.26;100.00;96763.91;4466044;31;20104;-64
2023/03/27 06:55:55;;;;;;;2.90;1.95;;;;;;;7.20;100.00;96761.16;4460564;31;20096;-67
2023/03/27 06:58:24;;;;;;;3.10;2.28;;;;;;;7.30;100.00;96764.41;4466620;31;20135;-66
2023/03/27 07:00:51;;;;;;;2.95;1.98;;;;;;;7.35;100.00;96775.13;4465045;31;20119;-66
2023/03/27 07:03:26;;;;;;;5.32;2.72;;;;;;;7.35;100.00;96769.13;4474361;31;20123;-65
2023/03/27 07:05:55;;;;;;;3.20;2.28;;;;;;;7.36;100.00;96765.50;4470433;31;20135;-64
2023/03/27 07:08:25;;;;;;;3.28;2.28;;;;;;;7.42;100.00;96767.47;4473986;31;20092;-65
2023/03/27 07:10:53;;;;;;;3.17;2.30;;;;;;;7.46;100.00;96777.41;4472258;31;20111;-64
2023/03/27 07:13:26;;;;;;;5.07;2.50;;;;;;;7.43;100.00;96771.69;4469497;31;20126;-65
2023/03/27 07:15:54;;;;;;;3.67;2.30;;;;;;;7.39;100.00;96770.41;4474513;31;20189;-64
2023/03/27 07:18:22;;;;;;;3.58;2.17;;;;;;;7.24;100.00;96762.47;4472368;31;20141;-64
2023/03/27 07:20:50;;;;;;;3.37;2.25;;;;;;;7.34;100.00;96767.47;4471033;31;20108;-65
2023/03/27 07:23:17;;;;;;;3.97;2.25;;;;;;;7.36;100.00;96761.13;4471110;31;20127;-65
2023/03/27 07:25:48;;;;;;;3.28;2.22;;;;;;;7.42;100.00;96765.69;4475367;31;20164;-63
2023/03/27 07:28:19;;;;;;;3.20;1.95;;;;;;;7.47;100.00;96768.59;4472388;31;20100;-64
2023/03/27 07:30:47;;;;;;;4.30;2.45;;;;;;;7.44;100.00;96763.72;4468944;31;20097;-64
2023/03/27 07:33:18;;;;;;;4.57;1.65;;;;;;;7.48;100.00;96764.22;4470483;31;20104;-64
2023/03/27 07:35:49;;;;;;;6.25;2.05;;;;;;;7.38;100.00;96769.59;4470881;31;20142;-63
2023/03/27 07:38:18;;;;;;;2.58;1.80;;;;;;;7.45;100.00;96777.56;4470296;31;20125;-64
2023/03/27 07:40:49;;;;;;;2.60;1.58;;;;;;;7.40;100.00;96775.47;4473409;31;20093;-64
2023/03/27 07:43:18;;;;;;;4.12;1.52;;;;;;;7.33;100.00;96773.66;4471892;31;20096;-64
2023/03/27 07:45:45;;;;;;;2.28;1.30;;;;;;;7.34;100.00;96777.91;4467062;31;20163;-64
2023/03/27 07:48:16;;;;;;;2.97;1.35;;;;;;;7.40;100.00;96777.22;4473851;31;20097;-65
2023/03/27 07:50:45;;;;;;;3.45;1.30;;;;;;;7.44;100.00;96775.94;4469750;31;20111;-65
2023/03/27 07:53:13;;;;;;;2.95;1.40;;;;;;;7.37;100.00;96778.38;4470206;32;20108;-64
2023/03/27 07:56:02;;;;;;;2.72;1.35;;;;;;;7.36;100.00;96768.13;4472723;31;20145;-64
2023/03/27 07:58:30;;;;;;;3.58;1.70;;;;;;;7.45;100.00;96759.34;4473766;31;20149;-64
2023/03/27 08:01:00;;;;;;;5.28;2.10;;;;;;;7.49;100.00;96765.00;4469341;31;20093;-63
2023/03/27 08:03:29;;;;;;;5.70;2.42;;;;;;;7.48;100.00;96769.41;4471960;31;20100;-64
2023/03/27 08:05:59;;;;;;;7.18;3.58;;;;;;;7.56;100.00;96771.19;4463848;32;20088;-64
2023/03/27 08:08:27;;;;;;;4.57;2.70;;;;;;;7.49;100.00;96772.81;4469639;31;20105;-65
2023/03/27 08:10:55;;;;;;;3.40;2.65;;;;;;;7.38;100.00;96781.81;4468334;31;20513;-64
2023/03/27 08:13:23;;;;;;;3.47;2.30;;;;;;;7.44;100.00;96787.16;4471115;32;20167;-66
2023/03/27 08:15:51;;;;;;;4.60;2.20;;;;;;;7.59;100.00;96787.28;4469889;32;21978;-66
2023/03/27 08:18:19;;;;;;;3.60;2.50;;;;;;;7.34;100.00;96790.91;4468223;31;20217;-65
2023/03/27 08:20:48;;;;;;;3.75;2.80;;;;;;;7.33;100.00;96797.09;4470713;31;20080;-66
2023/03/27 08:23:15;;;;;;;5.10;3.17;;;;;;;7.41;100.00;96791.91;4467057;31;20506;-65
2023/03/27 08:25:49;;;;;;;5.78;3.28;;;;;;;7.27;100.00;96791.59;4469595;32;20092;-65
2023/03/27 08:28:16;;;;;;;7.07;3.28;;;;;;;7.35;100.00;96795.16;4473462;31;20151;-64
2023/03/27 08:30:45;;;;;;;5.47;3.00;;;;;;;7.28;100.00;96795.81;4467832;31;20169;-64
2023/03/27 08:33:12;;;;;;;4.80;3.25;;;;;;;7.33;100.00;96792.72;4470410;31;20651;-64
2023/03/27 08:35:39;;;;;;;5.12;3.12;;;;;;;7.29;100.00;96794.81;4467622;31;20176;-64
2023/03/27 08:38:06;;;;;;;4.70;2.72;;;;;;;7.36;100.00;96799.37;4472441;31;20796;-65
2023/03/27 08:40:57;;;;;;;4.70;2.80;;;;;;;7.40;100.00;96798.91;4466266;31;20080;-66
2023/03/27 08:43:43;;;;;;;4.07;2.47;;;;;;;7.36;100.00;96807.19;4469641;31;20105;-67
2023/03/27 08:46:18;;;;;;;6.55;3.08;;;;;;;7.31;100.00;96812.91;4472190;31;20103;-66
2023/03/27 08:49:02;;;;;;;3.50;1.98;;;;;;;7.36;100.00;96817.59;4469302;31;20143;-64
2023/03/27 08:51:45;;;;;;;3.25;2.00;;;;;;;7.26;100.00;96826.41;4467729;31;20092;-65
2023/03/27 08:54:32;;;;;;;2.33;1.80;;;;;;;7.26;100.00;96823.81;4469516;31;20104;-65
2023/03/27 08:57:16;;;;;;;6.10;1.92;;;;;;;7.19;100.00;96822.03;4469798;31;20673;-65
2023/03/27 08:59:45;;;;;;;4.82;1.85;;;;;;;7.24;100.00;96820.56;4465482;32;20479;-64
2023/03/27 09:02:43;;;;;;;6.28;1.90;;;;;;;7.26;100.00;96825.59;4469961;32;20089;-63
2023/03/27 09:05:31;;;;;;;3.72;2.30;;;;;;;7.32;100.00;96829.34;4470118;31;20112;-63
2023/03/27 09:08:14;;;;;;;7.12;3.22;;;;;;;7.26;100.00;96823.81;4470033;32;20097;-64
2023/03/27 09:11:06;;;;;;;5.25;3.08;;;;;;;7.20;100.00;96814.03;4469149;31;20180;-65
2023/03/27 09:13:41;;;;;;;8.82;3.42;;;;;;;7.10;100.00;96818.59;4466124;31;20099;-64
2023/03/27 09:16:20;;;;;;;9.27;4.87;;;;;;;7.03;100.00;96820.25;4472138;31;20161;-63
2023/03/27 09:19:11;;;;;;;12.35;5.95;;;;;;;6.99;100.00;96814.53;4468082;32;20162;-64
2023/03/27 09:21:46;;;;;;;20.70;8.02;;;;;;;6.96;100.00;96814.06;4468650;31;20088;-64
2023/03/27 09:24:33;;;;;;;10.10;6.07;;;;;;;6.94;100.00;96814.22;4473936;31;20111;-64
2023/03/27 09:27:16;;;;;;;6.72;4.10;;;;;;;6.98;100.00;96806.91;4474306;31;20151;-64
2023/03/27 09:29:44;;;;;;;8.20;3.90;;;;;;;7.00;100.00;96810.97;4472846;31;20112;-64
2023/03/27 09:32:13;;;;;;;10.93;3.78;;;;;;;7.07;100.00;96813.72;4471397;32;20239;-64
2023/03/27 09:34:41;;;;;;;7.95;4.35;;;;;;;7.01;100.00;96816.97;4473596;31;20093;-64
2023/03/27 09:37:15;;;;;;;8.63;5.25;;;;;;;7.00;100.00;96810.16;4468943;31;20104;-63
2023/03/27 09:39:47;;;;;;;15.63;6.12;;;;;;;6.95;100.00;96809.81;4470022;31;20100;-63
2023/03/27 09:42:35;;;;;;;9.00;5.37;;;;;;;6.87;100.00;96824.50;4472154;31;20163;-63
2023/03/27 09:45:05;;;;;;;10.82;6.45;;;;;;;6.88;100.00;96826.09;4472642;31;20092;-64
2023/03/27 09:47:45;;;;;;;13.00;7.43;;;;;;;6.78;100.00;96825.44;4468174;31;20113;-63
2023/03/27 09:50:44;;;;;;;13.93;6.70;;;;;;;6.83;100.00;96833.59;4467343;32;20155;-64
2023/03/27 09:53:15;;;;;;;13.95;7.28;;;;;;;6.77;100.00;96847.25;4468557;31;20108;-65
2023/03/27 09:55:58;;;;;;;13.18;7.20;;;;;;;6.71;100.00;96840.09;4468349;31;20393;-63
2023/03/27 09:58:42;;;;;;;7.87;5.60;;;;;;;6.78;100.00;96848.84;4466794;31;20089;-64
2023/03/27 10:01:33;;;;;;;12.27;6.90;;;;;;;6.75;100.00;96849.16;4473772;31;20161;-65
2023/03/27 10:04:10;;;;;;;11.77;7.07;;;;;;;6.62;100.00;96851.44;4470070;31;20165;-64
2023/03/27 10:06:44;;;;;;;14.30;8.07;;;;;;;6.68;100.00;96866.41;4468475;32;20080;-66
2023/03/27 10:09:25;;;;;;;13.40;7.78;;;;;;;6.74;100.00;96855.38;4471568;31;20108;-65
2023/03/27 10:12:15;;;;;;;15.75;8.18;;;;;;;6.69;100.00;96863.66;4481050;31;20159;-67
2023/03/27 10:14:47;;;;;;;14.13;8.43;;;;;;;6.71;100.00;96872.09;4482321;31;20088;-66
2023/03/27 10:17:28;;;;;;;13.55;6.65;;;;;;;6.75;100.00;96868.22;4481359;31;20092;-66
2023/03/27 10:20:12;;;;;;;17.60;9.50;;;;;;;6.76;100.00;96871.62;4479735;31;20100;-62
2023/03/27 10:22:41;;;;;;;35.00;8.80;;;;;;;6.87;100.00;96879.16;4480163;31;20099;-63
2023/03/27 10:25:19;;;;;;;17.37;7.87;;;;;;;6.76;100.00;96874.22;4480717;31;20143;-64
2023/03/27 10:27:47;;;;;;;14.50;8.77;;;;;;;6.83;100.00;96872.62;4482758;32;20084;-64
2023/03/27 10:30:27;;;;;;;16.55;9.23;;;;;;;6.89;100.00;96853.75;4480535;31;20721;-64
2023/03/27 10:32:54;;;;;;;18.95;10.93;;;;;;;6.88;100.00;96880.75;4483138;32;20115;-64
2023/03/27 10:35:36;;;;;;;19.55;10.15;;;;;;;6.82;100.00;96891.81;4480575;31;20155;-63
2023/03/27 10:38:13;;;;;;;20.95;9.73;;;;;;;6.90;100.00;96888.41;4481976;32;20084;-63
2023/03/27 10:40:46;;;;;;;21.37;10.75;;;;;;;6.96;100.00;96892.16;4481317;31;20143;-62
2023/03/27 10:43:26;;;;;;;24.12;9.73;;;;;;;7.03;100.00;96896.56;4476266;31;20105;-63
2023/03/27 10:45:58;;;;;;;23.27;11.52;;;;;;;7.10;100.00;96883.69;4482271;31;20584;-63
2023/03/27 10:48:50;;;;;;;21.70;10.43;;;;;;;7.10;100.00;96888.91;4481873;31;20084;-63
2023/03/27 10:51:24;;;;;;;24.48;13.02;;;;;;;7.17;100.00;96902.91;4482942;32;20123;-63
2023/03/27 10:54:33;;;;;;;29.92;12.50;;;;;;;7.10;100.00;96889.75;4478413;31;20089;-62
2023/03/27 10:57:36;;;;;;;27.15;13.20;;;;;;;7.20;100.00;96896.59;4479488;31;20092;-63
2023/03/27 11:00:17;;;;;;;26.52;13.73;;;;;;;7.33;100.00;96896.09;4438906;32;20182;-62
2023/03/27 11:02:58;;;;;;;21.27;11.52;;;;;;;7.36;100.00;96891.37;4434452;32;20518;-62
2023/03/27 11:05:38;;;;;;;22.58;12.43;;;;;;;7.38;100.00;96901.63;4429471;32;20219;-62
2023/03/27 11:08:21;;;;;;;28.23;13.30;;;;;;;7.41;100.00;96906.53;4448841;32;20494;-62
2023/03/27 11:10:49;;;;;;;20.23;10.98;;;;;;;7.33;100.00;96890.87;4431946;32;20172;-62
2023/03/27 11:13:26;;;;;;;24.05;11.68;;;;;;;7.34;100.00;96895.12;4430110;32;20515;-61
2023/03/27 11:16:20;;;;;;;16.58;9.73;;;;;;;7.49;100.00;96906.50;4447900;32;20109;-62
2023/03/27 11:19:09;;;;;;;23.90;10.63;;;;;;;7.49;100.00;96906.50;4441996;32;20162;-62
2023/03/27 11:21:44;;;;;;;27.83;12.05;;;;;;;7.55;100.00;96902.44;4435650;32;20164;-62
2023/03/27 11:24:30;;;;;;;21.02;11.05;;;;;;;7.64;100.00;96920.53;4449978;32;20180;-62
2023/03/27 11:27:04;;;;;;;21.52;11.18;;;;;;;7.60;100.00;96913.16;4448276;32;20123;-62
2023/03/27 11:29:35;;;;;;;20.52;9.88;;;;;;;7.57;100.00;96924.75;4446590;32;20264;-62
2023/03/27 11:32:11;;;;;;;21.42;9.65;;;;;;;7.67;100.00;96921.16;4435574;32;20236;-62
2023/03/27 11:34:59;;;;;;;20.52;9.95;;;;;;;7.70;100.00;96924.25;4462196;32;20136;-62
2023/03/27 11:37:38;;;;;;;17.45;8.60;;;;;;;7.91;100.00;96930.75;4477992;31;20096;-61
2023/03/27 11:40:16;;;;;;;16.83;9.32;;;;;;;7.91;100.00;96941.19;4477036;31;20179;-62
2023/03/27 11:42:44;;;;;;;18.12;9.88;;;;;;;7.79;100.00;96938.09;4479545;31;20099;-62
2023/03/27 11:45:14;;;;;;;21.92;10.65;;;;;;;7.84;100.00;96933.19;4480978;32;20508;-62
2023/03/27 11:48:22;;;;;;;18.62;10.40;;;;;;;7.87;100.00;96939.88;4479466;31;20501;-62
2023/03/27 11:50:59;;;;;;;18.30;10.13;;;;;;;7.92;100.00;96938.41;4427532;32;20093;-62
2023/03/27 11:53:53;;;;;;;19.45;10.27;;;;;;;7.87;100.00;96919.81;4415407;32;20188;-62
2023/03/27 11:56:25;;;;;;;19.45;10.80;;;;;;;7.93;100.00;96934.81;4428682;32;20880;-64
2023/03/27 11:59:05;;;;;;;16.75;9.35;;;;;;;7.99;100.00;96935.94;4428880;32;20112;-63
2023/03/27 12:01:44;;;;;;;19.02;9.93;;;;;;;8.02;100.00;96945.22;4425431;32;20119;-62
2023/03/27 12:04:27;;;;;;;16.90;8.02;;;;;;;8.04;100.00;96951.91;4415887;32;20125;-62